Time;durP1;ratioP1;P1;durP2;ratioP2;P2;SDS_P1;SDS_P2;PMS_P1;PMS_P2;Temp;Humidity;BMP_temperature;BMP_pressure;BME280_temperature;BME280_humidity;BME280_pressure;Samples;Min_cycle;Max_cycle;Signal;HPM_P1;HPM_P2
2022/12/27 00:00:16;;;;;;;1.20;1.20;;;;;;;;;;6239044;28;20272;-83
2022/12/27 00:03:22;;;;;;;1.20;1.20;;;;;;;;;;6239600;28;20305;-83
2022/12/27 00:06:29;;;;;;;1.30;1.30;;;;;;;;;;6239825;28;20590;-82
2022/12/27 00:09:34;;;;;;;1.10;1.10;;;;;;;;;;6239385;28;20382;-82
2022/12/27 00:12:39;;;;;;;1.40;1.40;;;;;;;;;;6252109;28;20267;-83
2022/12/27 00:15:45;;;;;;;1.27;1.27;;;;;;;;;;6263477;28;20277;-82
2022/12/27 00:18:52;;;;;;;1.23;1.23;;;;;;;;;;6262817;28;20271;-82
2022/12/27 00:21:57;;;;;;;1.23;1.23;;;;;;;;;;6263339;28;20288;-81
2022/12/27 00:25:02;;;;;;;1.50;1.50;;;;;;;;;;6262525;28;20282;-82
2022/12/27 00:28:07;;;;;;;1.17;1.17;;;;;;;;;;6245589;28;20260;-82
2022/12/27 00:31:13;;;;;;;1.40;1.40;;;;;;;;;;6245429;28;20485;-82
2022/12/27 00:34:19;;;;;;;1.40;1.40;;;;;;;;;;6263241;28;20267;-83
2022/12/27 00:37:24;;;;;;;1.50;1.50;;;;;;;;;;6262059;28;20263;-82
2022/12/27 00:40:30;;;;;;;1.60;1.60;;;;;;;;;;6262280;28;20411;-82
2022/12/27 00:43:35;;;;;;;1.70;1.70;;;;;;;;;;6262324;28;20289;-82
2022/12/27 00:46:41;;;;;;;1.53;1.53;;;;;;;;;;6262618;28;20536;-82
2022/12/27 00:49:47;;;;;;;1.50;1.47;;;;;;;;;;6262603;28;20278;-83
2022/12/27 00:52:53;;;;;;;1.70;1.60;;;;;;;;;;6262638;28;20279;-82
2022/12/27 00:55:59;;;;;;;1.90;1.90;;;;;;;;;;6261490;28;20273;-82
2022/12/27 00:59:05;;;;;;;1.57;1.57;;;;;;;;;;6261468;28;20272;-83
2022/12/27 01:02:11;;;;;;;1.53;1.53;;;;;;;;;;6261127;28;20457;-82
2022/12/27 01:05:18;;;;;;;1.70;1.70;;;;;;;;;;6267043;28;20301;-82
2022/12/27 01:08:23;;;;;;;1.80;1.80;;;;;;;;;;6301821;28;20273;-82
2022/12/27 01:11:29;;;;;;;1.60;1.60;;;;;;;;;;6287249;28;20264;-82
2022/12/27 01:14:35;;;;;;;2.00;2.00;;;;;;;;;;6285643;28;20273;-82
2022/12/27 01:17:40;;;;;;;1.67;1.57;;;;;;;;;;6286956;28;20273;-81
2022/12/27 01:20:46;;;;;;;1.73;1.73;;;;;;;;;;6288547;28;20260;-81
2022/12/27 01:23:52;;;;;;;1.53;1.53;;;;;;;;;;6288960;28;20297;-81
2022/12/27 01:26:57;;;;;;;1.83;1.80;;;;;;;;;;6289014;28;20271;-81
2022/12/27 01:30:02;;;;;;;1.77;1.77;;;;;;;;;;6288533;28;20262;-82
2022/12/27 01:33:08;;;;;;;1.90;1.90;;;;;;;;;;6286183;28;20273;-82
2022/12/27 01:36:17;;;;;;;1.70;1.70;;;;;;;;;;6286720;28;20273;-82
2022/12/27 01:39:22;;;;;;;1.90;1.90;;;;;;;;;;6286036;28;20271;-83
2022/12/27 01:45:50;;;;;;;1.93;1.90;;;;;;;;;;6286294;28;20273;-83
2022/12/27 01:48:56;;;;;;;1.73;1.73;;;;;;;;;;6286114;28;20264;-82
2022/12/27 01:52:03;;;;;;;1.60;1.60;;;;;;;;;;6286510;28;20271;-83
2022/12/27 01:55:15;;;;;;;1.80;1.80;;;;;;;;;;6284424;28;20267;-82
2022/12/27 01:58:30;;;;;;;1.77;1.77;;;;;;;;;;6286300;28;20267;-82
2022/12/27 02:01:39;;;;;;;1.40;1.40;;;;;;;;;;6285915;28;20275;-82
2022/12/27 02:04:45;;;;;;;1.77;1.77;;;;;;;;;;6299582;22;20306;-85
2022/12/27 02:08:06;;;;;;;2.90;1.67;;;;;;;;;;6287760;28;20258;-84
2022/12/27 02:11:12;;;;;;;1.77;1.77;;;;;;;;;;6288392;28;20316;-84
2022/12/27 02:14:19;;;;;;;1.70;1.70;;;;;;;;;;6271059;28;20264;-85
2022/12/27 02:17:33;;;;;;;1.70;1.70;;;;;;;;;;6287147;28;20266;-84
2022/12/27 02:20:48;;;;;;;1.30;1.30;;;;;;;;;;6288311;28;20260;-84
2022/12/27 02:24:07;;;;;;;1.30;1.30;;;;;;;;;;6270564;28;20333;-84
2022/12/27 02:27:26;;;;;;;1.50;1.50;;;;;;;;;;6288191;28;20430;-84
2022/12/27 02:30:34;;;;;;;1.30;1.30;;;;;;;;;;6287325;28;20276;-82
2022/12/27 02:33:45;;;;;;;1.20;1.20;;;;;;;;;;6287144;28;20277;-83
2022/12/27 02:36:53;;;;;;;1.10;1.10;;;;;;;;;;6286916;28;20278;-83
2022/12/27 02:53:02;;;;;;;1.00;1.00;;;;;;;;;;6277448;28;20255;-81
2022/12/27 02:53:46;;;;;;;0.77;0.77;;;;;;;;;;6291823;28;20276;-83
2022/12/27 02:57:08;;;;;;;0.80;0.80;;;;;;;;;;6274276;28;20276;-82
2022/12/27 03:03:52;;;;;;;0.90;0.90;;;;;;;;;;6291467;28;20310;-81
2022/12/27 03:07:10;;;;;;;0.90;0.90;;;;;;;;;;6291515;28;20267;-82
2022/12/27 03:17:23;;;;;;;0.97;0.90;;;;;;;;;;6248868;28;20284;-82
2022/12/27 03:27:26;;;;;;;0.73;0.70;;;;;;;;;;6268181;28;20294;-82
2022/12/27 03:34:30;;;;;;;4.13;0.90;;;;;;;;;;6264932;28;20275;-82
2022/12/27 03:44:25;;;;;;;0.80;0.80;;;;;;;;;;6247909;28;20279;-81
2022/12/27 03:47:33;;;;;;;0.80;0.80;;;;;;;;;;6248101;28;20577;-82
2022/12/27 03:50:43;;;;;;;0.90;0.90;;;;;;;;;;6268988;28;20269;-81
2022/12/27 03:53:53;;;;;;;1.27;1.00;;;;;;;;;;6274219;28;20273;-83
2022/12/27 03:57:01;;;;;;;0.90;0.90;;;;;;;;;;6264669;28;20268;-83
2022/12/27 04:00:07;;;;;;;3.23;1.03;;;;;;;;;;6264873;28;20267;-82
2022/12/27 04:03:20;;;;;;;2.13;0.80;;;;;;;;;;6269798;28;20299;-82
2022/12/27 04:06:25;;;;;;;1.43;0.80;;;;;;;;;;6273163;28;20502;-82
2022/12/27 04:36:35;;;;;;;4.97;1.00;;;;;;;;;;6289144;28;20274;-81
2022/12/27 04:39:40;;;;;;;10.13;1.53;;;;;;;;;;6288420;28;20270;-82
2022/12/27 04:56:33;;;;;;;5.10;1.37;;;;;;;;;;6289443;28;20330;-82
2022/12/27 05:03:04;;;;;;;3.60;1.20;;;;;;;;;;6277800;28;20275;-82
2022/12/27 05:06:11;;;;;;;4.03;1.30;;;;;;;;;;6278540;28;20296;-83
2022/12/27 05:16:07;;;;;;;5.00;1.07;;;;;;;;;;6246365;28;20273;-83
2022/12/27 05:19:14;;;;;;;3.33;1.27;;;;;;;;;;6257113;28;20273;-83
2022/12/27 05:25:42;;;;;;;7.17;1.30;;;;;;;;;;6223203;28;20286;-83
2022/12/27 05:28:48;;;;;;;4.60;1.37;;;;;;;;;;6245625;28;20447;-82
2022/12/27 05:31:55;;;;;;;1.10;1.10;;;;;;;;;;6262950;28;20263;-82
2022/12/27 05:35:00;;;;;;;5.97;1.30;;;;;;;;;;6261846;28;20461;-82
2022/12/27 05:38:06;;;;;;;7.07;1.83;;;;;;;;;;6263395;28;20274;-82
2022/12/27 05:41:12;;;;;;;3.00;1.30;;;;;;;;;;6262428;28;20275;-82
2022/12/27 05:44:17;;;;;;;6.30;1.20;;;;;;;;;;6263106;28;20277;-82
2022/12/27 05:47:23;;;;;;;4.60;1.67;;;;;;;;;;6263409;28;20274;-84
2022/12/27 05:50:29;;;;;;;4.10;1.73;;;;;;;;;;6264103;28;20274;-84
2022/12/27 05:53:47;;;;;;;9.00;1.50;;;;;;;;;;6263733;28;20270;-83
2022/12/27 05:56:52;;;;;;;5.57;1.43;;;;;;;;;;6263285;28;20274;-83
2022/12/27 05:59:58;;;;;;;6.33;1.20;;;;;;;;;;6263311;28;20277;-84
2022/12/27 06:03:05;;;;;;;6.67;1.47;;;;;;;;;;6264828;28;20268;-84
2022/12/27 06:06:12;;;;;;;7.03;1.80;;;;;;;;;;6288952;28;20279;-84
2022/12/27 06:09:17;;;;;;;7.00;1.30;;;;;;;;;;6288188;28;20445;-84
2022/12/27 06:12:22;;;;;;;5.60;1.30;;;;;;;;;;6289590;28;20263;-83
2022/12/27 06:15:28;;;;;;;6.40;1.30;;;;;;;;;;6300580;28;20542;-84
2022/12/27 06:18:36;;;;;;;5.93;1.37;;;;;;;;;;6289139;28;20558;-82
2022/12/27 06:21:41;;;;;;;3.70;1.30;;;;;;;;;;6286699;28;20271;-83
2022/12/27 06:24:46;;;;;;;6.03;1.50;;;;;;;;;;6286942;28;20289;-82
2022/12/27 06:27:52;;;;;;;6.43;1.70;;;;;;;;;;6269110;28;20260;-83
2022/12/27 06:30:59;;;;;;;4.50;1.20;;;;;;;;;;6287196;28;20256;-83
2022/12/27 06:34:06;;;;;;;3.97;1.73;;;;;;;;;;6287673;28;20271;-82
2022/12/27 06:37:12;;;;;;;9.20;1.87;;;;;;;;;;6287703;28;20266;-83
2022/12/27 06:40:20;;;;;;;4.27;1.30;;;;;;;;;;6287385;28;20271;-83
2022/12/27 06:43:25;;;;;;;3.80;1.37;;;;;;;;;;6286228;28;20270;-83
2022/12/27 06:46:31;;;;;;;9.17;1.53;;;;;;;;;;6287475;28;20295;-83
2022/12/27 06:49:40;;;;;;;6.53;1.97;;;;;;;;;;6269238;28;20274;-82
2022/12/27 06:52:45;;;;;;;5.90;1.30;;;;;;;;;;6268946;28;20274;-83
2022/12/27 06:55:50;;;;;;;1.97;1.30;;;;;;;;;;6286743;28;20277;-82
2022/12/27 06:58:55;;;;;;;4.10;1.27;;;;;;;;;;6286737;28;20263;-83
2022/12/27 07:02:01;;;;;;;2.27;1.10;;;;;;;;;;6287222;28;20457;-82
2022/12/27 07:05:09;;;;;;;8.53;1.73;;;;;;;;;;6268839;28;20291;-83
2022/12/27 07:08:15;;;;;;;6.23;1.80;;;;;;;;;;6286621;28;20272;-82
2022/12/27 07:11:21;;;;;;;3.80;1.30;;;;;;;;;;6286846;28;20259;-83
2022/12/27 07:14:28;;;;;;;5.57;1.23;;;;;;;;;;6286426;28;20273;-83
2022/12/27 07:17:35;;;;;;;7.00;1.33;;;;;;;;;;6285622;28;20267;-82
2022/12/27 07:20:42;;;;;;;1.57;1.27;;;;;;;;;;6286318;28;20271;-83
2022/12/27 07:23:47;;;;;;;4.80;1.40;;;;;;;;;;6286845;28;20271;-82
2022/12/27 07:26:53;;;;;;;5.97;1.77;;;;;;;;;;6294288;28;20286;-82
2022/12/27 07:29:58;;;;;;;2.03;1.20;;;;;;;;;;6296096;28;20262;-81
2022/12/27 07:33:03;;;;;;;1.67;1.33;;;;;;;;;;6291926;28;20275;-84
2022/12/27 07:36:14;;;;;;;3.97;1.40;;;;;;;;;;6291133;28;20275;-82
2022/12/27 07:39:19;;;;;;;5.73;1.50;;;;;;;;;;6291678;28;20266;-82
2022/12/27 07:42:24;;;;;;;2.73;1.20;;;;;;;;;;6294336;28;20280;-82
2022/12/27 07:45:31;;;;;;;2.43;1.43;;;;;;;;;;6290357;28;20275;-83
2022/12/27 07:48:37;;;;;;;2.40;1.23;;;;;;;;;;6290494;28;20274;-84
2022/12/27 07:51:43;;;;;;;6.23;1.30;;;;;;;;;;6289625;28;20272;-82
2022/12/27 07:54:49;;;;;;;4.03;1.47;;;;;;;;;;6290310;28;20271;-83
2022/12/27 07:57:54;;;;;;;3.73;1.43;;;;;;;;;;6290855;28;20335;-83
2022/12/27 08:00:59;;;;;;;3.73;1.10;;;;;;;;;;6290013;28;20264;-84
2022/12/27 08:04:04;;;;;;;4.20;1.30;;;;;;;;;;6288910;28;20294;-84
2022/12/27 08:07:14;;;;;;;5.20;1.27;;;;;;;;;;6289323;28;20290;-84
2022/12/27 08:10:19;;;;;;;5.83;1.60;;;;;;;;;;6289753;28;20270;-84
2022/12/27 08:13:25;;;;;;;9.33;1.60;;;;;;;;;;6288259;28;20259;-83
2022/12/27 08:16:30;;;;;;;7.13;1.93;;;;;;;;;;6271383;28;20274;-83
2022/12/27 08:19:36;;;;;;;5.77;1.43;;;;;;;;;;6289654;28;20270;-83
2022/12/27 08:22:42;;;;;;;3.43;1.60;;;;;;;;;;6289493;28;20260;-83
2022/12/27 08:25:48;;;;;;;7.67;1.40;;;;;;;;;;6289364;28;20451;-83
2022/12/27 08:28:53;;;;;;;6.23;1.50;;;;;;;;;;6289668;28;20263;-83
2022/12/27 08:31:58;;;;;;;7.27;2.03;;;;;;;;;;6289309;28;20263;-83
2022/12/27 08:35:04;;;;;;;4.23;1.63;;;;;;;;;;6289219;28;20454;-83
2022/12/27 08:38:30;;;;;;;5.83;1.80;;;;;;;;;;6295770;28;20267;-82
2022/12/27 08:41:36;;;;;;;5.07;2.00;;;;;;;;;;6294992;28;20276;-82
2022/12/27 08:44:42;;;;;;;3.80;1.80;;;;;;;;;;6288985;28;20269;-83
2022/12/27 08:47:48;;;;;;;4.47;1.57;;;;;;;;;;6289035;28;20286;-83
2022/12/27 08:50:53;;;;;;;8.03;1.67;;;;;;;;;;6271457;28;20274;-83
2022/12/27 08:54:00;;;;;;;8.03;1.57;;;;;;;;;;6271355;28;20278;-83
2022/12/27 08:57:06;;;;;;;6.13;1.73;;;;;;;;;;6288624;28;20273;-83
2022/12/27 09:00:14;;;;;;;9.30;1.80;;;;;;;;;;6288624;28;20267;-83
2022/12/27 09:03:20;;;;;;;8.33;1.70;;;;;;;;;;6288337;28;20298;-83
2022/12/27 09:06:26;;;;;;;5.03;1.87;;;;;;;;;;6287835;28;20473;-83
2022/12/27 09:09:33;;;;;;;10.10;1.67;;;;;;;;;;6288081;28;20457;-83
2022/12/27 09:12:38;;;;;;;10.90;1.73;;;;;;;;;;6287887;28;20269;-83
2022/12/27 09:15:44;;;;;;;7.13;1.70;;;;;;;;;;6288025;28;20275;-83
2022/12/27 09:18:51;;;;;;;14.07;1.93;;;;;;;;;;6288410;28;20267;-83
2022/12/27 09:21:56;;;;;;;9.73;2.00;;;;;;;;;;6288342;28;20548;-83
2022/12/27 09:25:03;;;;;;;6.80;1.93;;;;;;;;;;6287736;28;20275;-82
2022/12/27 09:28:09;;;;;;;8.37;2.30;;;;;;;;;;6287883;28;20298;-82
2022/12/27 09:31:16;;;;;;;4.57;1.77;;;;;;;;;;6288076;28;20270;-82
2022/12/27 09:34:21;;;;;;;8.50;2.03;;;;;;;;;;6288085;28;20271;-83
2022/12/27 09:37:27;;;;;;;9.27;1.80;;;;;;;;;;6287173;28;20266;-81
2022/12/27 09:40:33;;;;;;;7.23;1.60;;;;;;;;;;6287378;28;20268;-82
2022/12/27 09:43:42;;;;;;;5.97;1.83;;;;;;;;;;6286854;28;20555;-81
2022/12/27 09:46:51;;;;;;;7.83;1.83;;;;;;;;;;6287367;28;20322;-83
2022/12/27 09:50:01;;;;;;;11.90;2.40;;;;;;;;;;6291414;28;20259;-81
2022/12/27 09:53:10;;;;;;;6.93;1.73;;;;;;;;;;6294744;28;20227;-82
2022/12/27 09:56:21;;;;;;;7.80;1.77;;;;;;;;;;6287098;28;20261;-82
2022/12/27 09:59:29;;;;;;;13.57;1.93;;;;;;;;;;6286883;28;20278;-82
2022/12/27 10:02:35;;;;;;;11.80;2.00;;;;;;;;;;6286508;28;20272;-84
2022/12/27 10:05:43;;;;;;;4.93;1.90;;;;;;;;;;6286178;28;20302;-84
2022/12/27 10:08:51;;;;;;;7.90;2.20;;;;;;;;;;6286739;28;20309;-84
2022/12/27 10:12:03;;;;;;;7.47;1.90;;;;;;;;;;6286778;28;20266;-84
2022/12/27 10:15:19;;;;;;;12.27;2.13;;;;;;;;;;6287506;28;20266;-83
2022/12/27 10:18:33;;;;;;;7.60;1.97;;;;;;;;;;6286876;28;20272;-84
2022/12/27 10:21:49;;;;;;;4.50;2.00;;;;;;;;;;6287465;28;20259;-84
2022/12/27 10:24:57;;;;;;;10.30;1.97;;;;;;;;;;6289690;28;20270;-86
2022/12/27 10:28:14;;;;;;;7.80;2.10;;;;;;;;;;6286292;28;20296;-85
2022/12/27 10:31:22;;;;;;;12.93;2.00;;;;;;;;;;6292685;28;20271;-86
2022/12/27 10:34:27;;;;;;;6.80;1.83;;;;;;;;;;6292745;28;20267;-84
2022/12/27 10:37:33;;;;;;;8.43;2.13;;;;;;;;;;6287129;28;20278;-85
2022/12/27 10:40:43;;;;;;;14.80;2.77;;;;;;;;;;6286303;28;20274;-85
2022/12/27 10:43:52;;;;;;;8.83;1.90;;;;;;;;;;6268921;28;20270;-87
2022/12/27 10:46:58;;;;;;;11.17;1.80;;;;;;;;;;6286222;28;20267;-89
2022/12/27 10:50:10;;;;;;;8.97;2.20;;;;;;;;;;6288097;28;20268;-88
2022/12/27 10:53:35;;;;;;;8.23;1.90;;;;;;;;;;6290734;28;20359;-88
2022/12/27 10:56:43;;;;;;;8.10;2.23;;;;;;;;;;6290797;28;20262;-92
2022/12/27 11:00:15;;;;;;;7.77;1.93;;;;;;;;;;6269828;28;20477;-92
2022/12/27 11:03:22;;;;;;;12.70;2.10;;;;;;;;;;6301958;28;20249;-88
2022/12/27 11:06:27;;;;;;;12.60;2.13;;;;;;;;;;6298037;28;20289;-87
2022/12/27 11:09:34;;;;;;;7.60;1.80;;;;;;;;;;6293848;28;20294;-84
2022/12/27 11:12:40;;;;;;;7.93;2.03;;;;;;;;;;6292635;28;20266;-88
2022/12/27 11:15:55;;;;;;;4.77;2.03;;;;;;;;;;6294404;28;20274;-82
2022/12/27 11:19:04;;;;;;;9.77;2.60;;;;;;;;;;6290258;28;20275;-82
2022/12/27 11:22:11;;;;;;;8.43;1.70;;;;;;;;;;6291379;28;20267;-82
2022/12/27 11:25:17;;;;;;;9.27;2.13;;;;;;;;;;6273333;28;20554;-84
2022/12/27 11:28:32;;;;;;;6.70;1.70;;;;;;;;;;6291262;28;20285;-83
2022/12/27 11:31:40;;;;;;;10.27;2.33;;;;;;;;;;6290923;28;20271;-86
2022/12/27 11:34:48;;;;;;;11.83;2.40;;;;;;;;;;6277042;28;20295;-82
2022/12/27 11:37:53;;;;;;;11.33;2.40;;;;;;;;;;6268002;28;20393;-85
2022/12/27 11:41:01;;;;;;;7.20;2.03;;;;;;;;;;6250511;28;20449;-88
2022/12/27 11:44:16;;;;;;;6.27;1.60;;;;;;;;;;6266775;28;20275;-84
2022/12/27 11:47:31;;;;;;;10.53;1.93;;;;;;;;;;6266984;28;20275;-85
2022/12/27 11:50:50;;;;;;;12.93;2.03;;;;;;;;;;6268623;28;20293;-87
2022/12/27 11:54:22;;;;;;;8.03;2.10;;;;;;;;;;6268521;28;20268;-89
2022/12/27 11:57:37;;;;;;;11.03;2.20;;;;;;;;;;6279956;28;20223;-90
2022/12/27 12:00:49;;;;;;;8.07;2.47;;;;;;;;;;6269070;28;20521;-89
2022/12/27 12:04:16;;;;;;;5.40;2.10;;;;;;;;;;6270979;28;20299;-83
2022/12/27 12:07:30;;;;;;;11.47;2.50;;;;;;;;;;6265043;28;20279;-83
2022/12/27 12:10:44;;;;;;;13.77;2.10;;;;;;;;;;6264792;28;20291;-83
2022/12/27 12:14:34;;;;;;;13.83;2.57;;;;;;;;;;6292538;28;20258;-81
2022/12/27 12:17:59;;;;;;;8.07;1.87;;;;;;;;;;6274899;28;20279;-83
2022/12/27 12:21:29;;;;;;;10.90;2.57;;;;;;;;;;6288800;28;20274;-83
2022/12/27 12:24:52;;;;;;;10.53;1.90;;;;;;;;;;6289155;28;20272;-83
2022/12/27 12:28:28;;;;;;;8.07;2.73;;;;;;;;;;6271814;28;20276;-83
2022/12/27 12:32:17;;;;;;;7.93;2.67;;;;;;;;;;6272534;28;20298;-83
2022/12/27 12:35:38;;;;;;;11.03;2.20;;;;;;;;;;6289096;28;20278;-83
2022/12/27 12:38:50;;;;;;;6.47;1.63;;;;;;;;;;6289316;28;20279;-82
2022/12/27 12:42:09;;;;;;;6.63;1.70;;;;;;;;;;6288547;28;20268;-82
2022/12/27 12:45:32;;;;;;;5.70;1.80;;;;;;;;;;6271473;28;20271;-83
2022/12/27 12:48:58;;;;;;;8.50;2.47;;;;;;;;;;6288803;28;20287;-80
2022/12/27 12:52:22;;;;;;;8.53;1.90;;;;;;;;;;6289212;28;20266;-79
2022/12/27 12:55:40;;;;;;;7.27;2.00;;;;;;;;;;6288377;28;20275;-82
2022/12/27 12:58:53;;;;;;;15.27;2.37;;;;;;;;;;6289408;28;20281;-83
2022/12/27 13:02:08;;;;;;;10.17;2.10;;;;;;;;;;6288757;28;20270;-81
2022/12/27 13:05:19;;;;;;;11.77;2.60;;;;;;;;;;6289836;28;20301;-83
2022/12/27 13:08:28;;;;;;;9.00;1.90;;;;;;;;;;6289871;28;20301;-80
2022/12/27 13:11:46;;;;;;;3.50;1.90;;;;;;;;;;6290018;28;20274;-83
2022/12/27 13:15:14;;;;;;;7.77;2.00;;;;;;;;;;6289051;28;20270;-82
2022/12/27 13:18:24;;;;;;;6.73;1.73;;;;;;;;;;6288268;28;20270;-83
2022/12/27 13:21:51;;;;;;;8.60;1.73;;;;;;;;;;6288569;28;20271;-83
2022/12/27 13:25:10;;;;;;;9.97;1.70;;;;;;;;;;6296961;28;20213;-80
2022/12/27 13:28:30;;;;;;;8.70;2.37;;;;;;;;;;6290160;28;20331;-81
2022/12/27 13:31:41;;;;;;;5.80;1.90;;;;;;;;;;6287469;28;20294;-82
2022/12/27 13:34:57;;;;;;;6.47;2.13;;;;;;;;;;6287753;28;20272;-82
2022/12/27 13:38:13;;;;;;;7.90;1.93;;;;;;;;;;6288340;28;20285;-84
2022/12/27 13:41:32;;;;;;;4.67;1.63;;;;;;;;;;6287117;28;20278;-84
2022/12/27 13:44:48;;;;;;;5.70;1.77;;;;;;;;;;6287190;28;20269;-84
2022/12/27 13:48:05;;;;;;;11.17;2.20;;;;;;;;;;6286824;28;20455;-84
2022/12/27 13:51:22;;;;;;;4.27;1.90;;;;;;;;;;6286979;28;20454;-83
2022/12/27 13:54:45;;;;;;;4.33;1.73;;;;;;;;;;6285888;28;20459;-83
2022/12/27 13:58:19;;;;;;;4.83;1.40;;;;;;;;;;6286181;28;20278;-82
2022/12/27 14:01:50;;;;;;;8.57;1.63;;;;;;;;;;6263338;28;20263;-84
2022/12/27 14:05:27;;;;;;;5.00;1.60;;;;;;;;;;6287942;28;20473;-83
2022/12/27 14:08:50;;;;;;;8.80;2.30;;;;;;;;;;6287131;28;20272;-83
2022/12/27 14:12:08;;;;;;;8.13;1.80;;;;;;;;;;6279944;28;20284;-83
2022/12/27 14:15:17;;;;;;;7.33;1.50;;;;;;;;;;6262739;28;20270;-82
2022/12/27 14:18:43;;;;;;;11.80;1.73;;;;;;;;;;6261873;28;20271;-82
2022/12/27 14:22:09;;;;;;;5.70;1.60;;;;;;;;;;6260666;28;20277;-81
2022/12/27 14:25:57;;;;;;;8.17;1.80;;;;;;;;;;6261035;28;20279;-82
2022/12/27 14:29:39;;;;;;;4.13;1.53;;;;;;;;;;6261308;28;20571;-82
2022/12/27 14:33:30;;;;;;;5.43;1.90;;;;;;;;;;6260789;28;20273;-82
2022/12/27 14:37:16;;;;;;;2.43;1.60;;;;;;;;;;6163553;28;20310;-81
2022/12/27 14:40:53;;;;;;;5.87;1.60;;;;;;;;;;6192339;28;20276;-82
2022/12/27 14:44:28;;;;;;;8.83;1.93;;;;;;;;;;6265808;28;20264;-82
2022/12/27 14:48:13;;;;;;;4.97;1.57;;;;;;;;;;6266947;28;20271;-81
2022/12/27 14:51:33;;;;;;;2.30;1.83;;;;;;;;;;6245017;28;20294;-81
2022/12/27 14:55:25;;;;;;;7.53;1.70;;;;;;;;;;6265912;28;20263;-83
2022/12/27 14:58:52;;;;;;;6.80;1.53;;;;;;;;;;6263748;28;20437;-83
2022/12/27 15:02:06;;;;;;;3.73;2.07;;;;;;;;;;6265793;28;20274;-81
2022/12/27 15:05:34;;;;;;;5.13;1.87;;;;;;;;;;6284429;28;20303;-82
2022/12/27 15:08:50;;;;;;;5.90;1.67;;;;;;;;;;6286927;28;20269;-82
2022/12/27 15:12:10;;;;;;;4.07;1.87;;;;;;;;;;6290612;28;20598;-80
2022/12/27 15:15:29;;;;;;;4.00;1.40;;;;;;;;;;6289943;28;20291;-81
2022/12/27 15:18:44;;;;;;;5.47;2.20;;;;;;;;;;6290857;28;20267;-82
2022/12/27 15:21:56;;;;;;;1.57;1.47;;;;;;;;;;6290128;28;20280;-78
2022/12/27 15:25:07;;;;;;;3.60;1.40;;;;;;;;;;6289782;28;20267;-79
2022/12/27 15:28:18;;;;;;;1.77;1.20;;;;;;;;;;6290138;28;20274;-80
2022/12/27 15:31:31;;;;;;;6.83;1.70;;;;;;;;;;6290184;28;20606;-84
2022/12/27 15:34:53;;;;;;;4.90;2.20;;;;;;;;;;6291099;28;20271;-83
2022/12/27 15:38:11;;;;;;;2.43;1.63;;;;;;;;;;6271705;28;20279;-82
2022/12/27 15:41:34;;;;;;;2.20;2.03;;;;;;;;;;6271975;28;20580;-82
2022/12/27 15:44:49;;;;;;;4.97;2.13;;;;;;;;;;6289903;28;20281;-82
2022/12/27 15:48:10;;;;;;;2.93;1.90;;;;;;;;;;6289203;28;20269;-82
2022/12/27 15:51:23;;;;;;;2.37;2.00;;;;;;;;;;6302303;28;20297;-82
2022/12/27 15:54:45;;;;;;;1.90;1.70;;;;;;;;;;6271807;28;20284;-82
2022/12/27 15:58:13;;;;;;;2.17;1.30;;;;;;;;;;6288883;28;20286;-82
2022/12/27 16:01:28;;;;;;;2.73;1.33;;;;;;;;;;6289097;28;20275;-82
2022/12/27 16:04:46;;;;;;;2.37;1.23;;;;;;;;;;6288482;28;20311;-82
2022/12/27 16:07:53;;;;;;;3.97;1.40;;;;;;;;;;6270827;28;20278;-82
2022/12/27 16:10:59;;;;;;;2.70;1.20;;;;;;;;;;6288626;28;20299;-83
2022/12/27 16:14:23;;;;;;;2.00;1.23;;;;;;;;;;6222329;28;20270;-82
2022/12/27 16:17:36;;;;;;;3.33;1.10;;;;;;;;;;6246704;28;20266;-83
2022/12/27 16:20:42;;;;;;;5.50;1.37;;;;;;;;;;6247992;28;20229;-81
2022/12/27 16:23:54;;;;;;;1.33;1.33;;;;;;;;;;6230866;28;20278;-82
2022/12/27 16:27:01;;;;;;;4.20;1.00;;;;;;;;;;6248356;28;20273;-83
2022/12/27 16:30:11;;;;;;;1.20;1.20;;;;;;;;;;6231594;28;20276;-82
2022/12/27 16:33:37;;;;;;;2.37;1.20;;;;;;;;;;6248120;28;20301;-82
2022/12/27 16:36:47;;;;;;;1.70;1.60;;;;;;;;;;6253581;28;20237;-80
2022/12/27 16:40:23;;;;;;;1.00;1.00;;;;;;;;;;6255123;28;20231;-81
2022/12/27 16:43:51;;;;;;;4.67;1.20;;;;;;;;;;6232365;28;20216;-82
2022/12/27 16:47:06;;;;;;;3.20;1.60;;;;;;;;;;6254548;28;20227;-83
2022/12/27 16:50:57;;;;;;;1.10;1.10;;;;;;;;;;6254894;28;20225;-82
2022/12/27 16:54:21;;;;;;;1.90;1.40;;;;;;;;;;6245781;28;20276;-86
2022/12/27 16:57:42;;;;;;;2.00;1.33;;;;;;;;;;6235997;28;20244;-89
2022/12/27 17:00:49;;;;;;;1.90;1.90;;;;;;;;;;6252223;28;20231;-86
2022/12/27 17:03:55;;;;;;;6.43;3.90;;;;;;;;;;6254681;28;20260;-89
2022/12/27 17:07:02;;;;;;;6.30;5.70;;;;;;;;;;6235539;28;20226;-88
2022/12/27 17:10:43;;;;;;;10.63;7.17;;;;;;;;;;6248525;28;20255;-88
2022/12/27 17:13:51;;;;;;;11.20;7.80;;;;;;;;;;6262695;28;20268;-83
2022/12/27 17:17:01;;;;;;;7.83;2.07;;;;;;;;;;6267022;28;20270;-91
2022/12/27 17:20:16;;;;;;;1.53;1.40;;;;;;;;;;6249365;28;20276;-88
2022/12/27 17:23:24;;;;;;;1.97;1.10;;;;;;;;;;6265327;28;20268;-89
2022/12/27 17:26:47;;;;;;;2.67;1.03;;;;;;;;;;6265599;28;20293;-89
2022/12/27 17:30:04;;;;;;;2.33;1.10;;;;;;;;;;6265628;28;20278;-88
2022/12/27 17:33:33;;;;;;;1.70;1.13;;;;;;;;;;6263231;28;20288;-89
2022/12/27 17:36:51;;;;;;;1.27;1.00;;;;;;;;;;6256572;28;20282;-83
2022/12/27 17:40:09;;;;;;;2.93;1.20;;;;;;;;;;6267025;28;20264;-87
2022/12/27 17:46:55;;;;;;;1.20;1.20;;;;;;;;;;6265289;28;20273;-87
2022/12/27 17:50:03;;;;;;;0.90;0.90;;;;;;;;;;6216120;28;20572;-88
2022/12/27 18:00:23;;;;;;;1.03;1.00;;;;;;;;;;6264246;28;20268;-90
2022/12/27 18:03:36;;;;;;;1.27;1.20;;;;;;;;;;6250526;28;20306;-83
2022/12/27 18:06:41;;;;;;;1.30;1.30;;;;;;;;;;6288744;28;20274;-85
2022/12/27 18:09:49;;;;;;;1.10;1.10;;;;;;;;;;6270421;28;20545;-80
2022/12/27 18:13:03;;;;;;;1.20;1.20;;;;;;;;;;6253004;28;20289;-82
2022/12/27 18:16:15;;;;;;;1.73;1.63;;;;;;;;;;6269221;28;20272;-84
2022/12/27 18:19:21;;;;;;;1.33;1.23;;;;;;;;;;6261416;28;20452;-80
2022/12/27 18:22:26;;;;;;;1.53;0.93;;;;;;;;;;6261246;28;20284;-80
2022/12/27 18:25:33;;;;;;;1.13;0.97;;;;;;;;;;6261071;28;20267;-81
2022/12/27 18:28:40;;;;;;;0.87;0.87;;;;;;;;;;6243517;28;20274;-80
2022/12/27 18:31:49;;;;;;;1.57;1.17;;;;;;;;;;6259548;28;20295;-80
2022/12/27 18:34:56;;;;;;;0.93;0.93;;;;;;;;;;6261180;28;20270;-82
2022/12/27 18:38:03;;;;;;;1.50;1.40;;;;;;;;;;6261063;28;20276;-78
2022/12/27 18:41:10;;;;;;;1.10;1.10;;;;;;;;;;6260895;28;20283;-76
2022/12/27 18:44:19;;;;;;;1.20;1.20;;;;;;;;;;6261513;28;20375;-80
2022/12/27 18:47:32;;;;;;;1.37;1.20;;;;;;;;;;6261192;28;20273;-80
2022/12/27 18:50:38;;;;;;;1.13;1.13;;;;;;;;;;6260787;28;20272;-80
2022/12/27 18:53:44;;;;;;;1.30;1.30;;;;;;;;;;6243866;28;20298;-83
2022/12/27 18:56:53;;;;;;;1.80;1.70;;;;;;;;;;6262458;28;20272;-80
2022/12/27 19:00:16;;;;;;;1.70;1.20;;;;;;;;;;6260374;28;20275;-79
2022/12/27 19:03:24;;;;;;;1.03;0.90;;;;;;;;;;6246140;28;20299;-82
2022/12/27 19:06:32;;;;;;;1.67;1.67;;;;;;;;;;6260355;28;20312;-78
2022/12/27 19:09:39;;;;;;;1.20;1.10;;;;;;;;;;6260549;28;20266;-80
2022/12/27 19:12:45;;;;;;;1.00;1.00;;;;;;;;;;6274792;28;20279;-81
2022/12/27 19:15:53;;;;;;;1.10;1.10;;;;;;;;;;6286901;28;20266;-87
2022/12/27 19:19:01;;;;;;;1.03;1.03;;;;;;;;;;6285402;28;20269;-84
2022/12/27 19:22:35;;;;;;;1.37;1.37;;;;;;;;;;6267809;28;20271;-82
2022/12/27 19:25:41;;;;;;;1.10;1.10;;;;;;;;;;6297224;28;20267;-79
2022/12/27 19:28:47;;;;;;;1.10;1.10;;;;;;;;;;6292213;28;20271;-80
2022/12/27 19:31:56;;;;;;;1.00;1.00;;;;;;;;;;6289432;28;20276;-81
2022/12/27 19:35:03;;;;;;;1.60;1.60;;;;;;;;;;6290047;28;20274;-80
2022/12/27 19:38:17;;;;;;;1.70;1.60;;;;;;;;;;6289077;28;20319;-80
2022/12/27 19:41:22;;;;;;;1.60;1.57;;;;;;;;;;6271913;28;20266;-80
2022/12/27 19:44:27;;;;;;;1.00;1.00;;;;;;;;;;6291515;28;20282;-81
2022/12/27 19:47:38;;;;;;;1.20;1.20;;;;;;;;;;6290326;28;20278;-81
2022/12/27 19:50:46;;;;;;;2.63;1.20;;;;;;;;;;6289104;28;20271;-78
2022/12/27 19:53:53;;;;;;;1.00;1.00;;;;;;;;;;6288419;28;20315;-81
2022/12/27 19:57:01;;;;;;;1.50;1.10;;;;;;;;;;6288600;28;20271;-81
2022/12/27 20:00:14;;;;;;;2.00;0.90;;;;;;;;;;6288576;28;20274;-79
2022/12/27 20:03:21;;;;;;;0.80;0.80;;;;;;;;;;6288030;28;20472;-79
2022/12/27 20:06:29;;;;;;;1.00;1.00;;;;;;;;;;6288457;28;20289;-83
2022/12/27 20:09:34;;;;;;;0.90;0.90;;;;;;;;;;6288583;28;20268;-80
2022/12/27 20:12:40;;;;;;;1.20;1.13;;;;;;;;;;6289203;28;20260;-89
2022/12/27 20:15:45;;;;;;;0.93;0.93;;;;;;;;;;6272238;28;20279;-89
2022/12/27 20:18:52;;;;;;;0.97;0.97;;;;;;;;;;6271146;28;20276;-88
2022/12/27 20:21:59;;;;;;;0.80;0.80;;;;;;;;;;6288341;28;20273;-82
2022/12/27 20:25:05;;;;;;;0.97;0.77;;;;;;;;;;6289613;28;20279;-82
2022/12/27 20:28:14;;;;;;;1.03;1.03;;;;;;;;;;6292789;28;20573;-83
2022/12/27 20:31:20;;;;;;;1.20;1.20;;;;;;;;;;6290349;28;20270;-80
2022/12/27 20:34:27;;;;;;;2.00;0.87;;;;;;;;;;6271525;28;20302;-82
2022/12/27 20:37:32;;;;;;;1.23;0.93;;;;;;;;;;6296193;28;20262;-80
2022/12/27 20:40:39;;;;;;;2.87;1.00;;;;;;;;;;6291225;28;20441;-81
2022/12/27 20:43:44;;;;;;;1.53;1.10;;;;;;;;;;6287913;28;20274;-86
2022/12/27 20:46:50;;;;;;;1.83;1.23;;;;;;;;;;6287776;28;20289;-87
2022/12/27 20:49:57;;;;;;;1.70;0.80;;;;;;;;;;6287388;28;20297;-85
2022/12/27 20:53:02;;;;;;;1.33;1.33;;;;;;;;;;6287774;28;20266;-84